PST,Max TemperatureF,Mean TemperatureF,Min TemperatureF,Max Dew PointF,MeanDew PointF,Min DewpointF,Max Humidity, Mean Humidity, Min Humidity, Max Sea Level PressureIn, Mean Sea Level PressureIn, Min Sea Level PressureIn, Max VisibilityMiles, Mean VisibilityMiles, Min VisibilityMiles, Max Wind SpeedMPH, Mean Wind SpeedMPH, Max Gust SpeedMPH,PrecipitationIn, CloudCover, Events, WindDirDegrees
2013-11-1,59,51,42,51,47,42,100,86,72,30.29,30.19,29.92,9,4,0,10,3,13,0.29,7,Fog-Rain,311
2013-11-2,56,50,43,51,46,37,100,78,55,30.06,29.87,29.72,10,7,2,20,9,25,0.38,7,Rain,186
2013-11-3,52,44,35,43,40,36,100,83,66,30.16,30.12,30.07,10,10,9,12,3,17,0.07,6,Rain,241
2013-11-4,49,46,42,46,44,41,100,93,86,30.18,30.15,30.11,10,7,3,12,3,15,0.26,8,Rain,150
2013-11-5,54,51,47,50,48,46,100,92,83,30.26,30.16,30.09,10,7,2,10,4,13,0.07,7,Fog-Rain,193
2013-11-6,52,50,48,50,49,46,96,91,86,30.31,30.21,30.09,10,4,1,5,1,6,0.34,8,Rain,294
2013-11-7,56,51,46,52,48,42,96,81,66,30.12,29.98,29.86,10,8,2,26,9,37,0.35,7,Rain,188
2013-11-8,52,47,41,46,43,40,100,90,80,30.20,30.16,30.13,10,6,1,12,2,14,0.07,4,Rain,310
2013-11-9,49,43,37,45,40,37,100,90,80,30.14,30.10,30.06,10,5,1,6,2,8,T,4,Fog,302
2013-11-10,58,50,41,47,43,40,100,81,62,30.10,30.07,30.05,10,6,1,5,1,6,0.00,2,Fog,313
2013-11-11,61,49,36,43,39,36,100,75,49,30.17,30.09,30.04,10,5,0,18,6,24,0.00,1,Fog,317
2013-11-12,55,51,46,51,48,42,100,93,86,30.43,30.28,30.11,10,6,2,7,2,8,0.27,8,Rain,320
2013-11-13,52,47,41,49,46,41,100,92,83,30.50,30.43,30.31,10,4,0,9,3,11,0.00,7,Fog,289
2013-11-14,50,44,38,45,41,38,100,90,80,30.29,30.18,30.12,10,4,0,7,1,9,0.03,8,Fog-Rain,270
2013-11-15,49,42,34,44,39,34,100,91,82,30.12,29.95,29.53,10,5,0,18,6,25,0.02,8,Fog-Rain,191
2013-11-16,51,46,40,44,39,36,86,77,68,29.86,29.71,29.54,10,10,10,18,5,22,0.02,7,Rain,235
2013-11-17,54,46,37,46,42,37,100,86,71,29.98,29.94,29.87,10,9,2,22,8,29,0.00,7,,181
2013-11-18,51,50,49,48,45,42,93,84,74,29.96,29.82,29.70,10,9,6,23,13,30,0.28,8,Rain,172
2013-11-19,52,44,35,50,44,29,96,83,70,30.04,29.79,29.71,10,9,4,20,9,23,0.20,7,Rain,273
2013-11-20,47,37,26,30,26,22,92,71,49,30.42,30.24,30.06,10,10,10,14,5,16,0.00,0,,347
2013-11-21,48,36,23,23,19,12,81,52,23,30.60,30.55,30.44,10,10,10,13,4,16,0.00,0,,360
2013-11-22,50,35,20,25,19,12,92,60,28,30.60,30.52,30.43,10,10,10,17,5,24,0.00,0,,17
2013-11-23,53,39,24,27,22,17,88,57,26,30.43,30.31,30.20,10,10,10,13,4,16,0.00,0,,320
2013-11-24,50,37,23,28,25,22,92,63,34,30.30,30.22,30.18,10,9,6,6,1,7,0.00,0,,296
2013-11-25,50,37,23,30,26,22,92,66,39,30.37,30.33,30.30,10,9,5,6,1,10,0.00,0,,315
2013-11-26,45,36,26,35,30,25,92,75,58,30.29,30.20,30.09,10,9,6,6,1,8,T,3,Rain,313
2013-11-27,55,42,29,36,31,28,96,67,38,30.07,30.02,29.97,10,9,6,8,2,10,0.00,0,,348
2013-11-28,53,39,24,36,29,24,100,75,50,30.22,30.12,30.04,10,9,5,5,1,7,0.00,0,,305
2013-11-29,43,34,24,38,32,23,100,88,76,30.37,30.31,30.23,9,6,2,7,2,12,0.01,5,Rain,297
2013-11-30,48,43,38,43,41,37,100,86,71,30.39,30.32,30.21,6,4,2,6,0,7,0.07,8,Rain,60